sensor_id;sensor_type;location;lat;lon;timestamp;temperature;humidity
51863;DHT22;37900;52.996;6.278;2022-12-18T00:01:52;16.50;69.10
51863;DHT22;37900;52.996;6.278;2022-12-18T00:04:23;16.50;69.10
51863;DHT22;37900;52.996;6.278;2022-12-18T00:06:49;16.50;69.00
51863;DHT22;37900;52.996;6.278;2022-12-18T00:09:15;16.50;69.00
51863;DHT22;37900;52.996;6.278;2022-12-18T00:11:41;16.50;68.90
51863;DHT22;37900;52.996;6.278;2022-12-18T00:14:08;16.50;68.90
51863;DHT22;37900;52.996;6.278;2022-12-18T00:16:34;16.50;68.90
51863;DHT22;37900;52.996;6.278;2022-12-18T00:19:03;16.50;68.80
51863;DHT22;37900;52.996;6.278;2022-12-18T00:21:30;16.50;68.80
51863;DHT22;37900;52.996;6.278;2022-12-18T00:23:57;16.40;68.70
51863;DHT22;37900;52.996;6.278;2022-12-18T00:26:28;16.40;68.60
51863;DHT22;37900;52.996;6.278;2022-12-18T00:28:54;16.40;68.70
51863;DHT22;37900;52.996;6.278;2022-12-18T00:31:23;16.40;68.60
51863;DHT22;37900;52.996;6.278;2022-12-18T00:33:50;16.40;68.50
51863;DHT22;37900;52.996;6.278;2022-12-18T00:36:18;16.40;68.50
51863;DHT22;37900;52.996;6.278;2022-12-18T00:38:45;16.40;68.50
51863;DHT22;37900;52.996;6.278;2022-12-18T00:41:12;16.40;68.40
51863;DHT22;37900;52.996;6.278;2022-12-18T00:43:39;16.40;68.40
51863;DHT22;37900;52.996;6.278;2022-12-18T00:46:05;16.40;68.40
51863;DHT22;37900;52.996;6.278;2022-12-18T00:48:31;16.30;68.30
51863;DHT22;37900;52.996;6.278;2022-12-18T00:50:57;16.30;68.30
51863;DHT22;37900;52.996;6.278;2022-12-18T00:53:23;16.30;68.20
51863;DHT22;37900;52.996;6.278;2022-12-18T00:55:49;16.30;68.20
51863;DHT22;37900;52.996;6.278;2022-12-18T00:58:16;16.30;68.10
51863;DHT22;37900;52.996;6.278;2022-12-18T01:00:42;16.30;68.10
51863;DHT22;37900;52.996;6.278;2022-12-18T01:03:10;16.30;68.10
51863;DHT22;37900;52.996;6.278;2022-12-18T01:05:41;16.30;68.00
51863;DHT22;37900;52.996;6.278;2022-12-18T01:08:07;16.30;68.00
51863;DHT22;37900;52.996;6.278;2022-12-18T01:10:33;16.30;67.90
51863;DHT22;37900;52.996;6.278;2022-12-18T01:12:58;16.20;67.90
51863;DHT22;37900;52.996;6.278;2022-12-18T01:15:24;16.30;67.90
51863;DHT22;37900;52.996;6.278;2022-12-18T01:17:52;16.20;67.80
51863;DHT22;37900;52.996;6.278;2022-12-18T01:20:18;16.20;67.80
51863;DHT22;37900;52.996;6.278;2022-12-18T01:22:44;16.20;67.70
51863;DHT22;37900;52.996;6.278;2022-12-18T01:25:10;16.20;67.70
51863;DHT22;37900;52.996;6.278;2022-12-18T01:27:36;16.20;67.70
51863;DHT22;37900;52.996;6.278;2022-12-18T01:30:01;16.20;67.60
51863;DHT22;37900;52.996;6.278;2022-12-18T01:32:30;16.20;67.60
51863;DHT22;37900;52.996;6.278;2022-12-18T01:34:56;16.10;67.50
51863;DHT22;37900;52.996;6.278;2022-12-18T01:37:22;16.20;67.60
51863;DHT22;37900;52.996;6.278;2022-12-18T01:39:48;16.20;67.60
51863;DHT22;37900;52.996;6.278;2022-12-18T01:42:16;16.10;67.50
51863;DHT22;37900;52.996;6.278;2022-12-18T01:45:01;16.10;67.50
51863;DHT22;37900;52.996;6.278;2022-12-18T01:52:38;16.10;67.30
51863;DHT22;37900;52.996;6.278;2022-12-18T01:55:06;16.10;67.30
51863;DHT22;37900;52.996;6.278;2022-12-18T01:57:33;16.10;67.30
51863;DHT22;37900;52.996;6.278;2022-12-18T02:00:01;16.10;67.30
51863;DHT22;37900;52.996;6.278;2022-12-18T02:02:28;16.10;67.30
51863;DHT22;37900;52.996;6.278;2022-12-18T02:04:55;16.10;67.20
51863;DHT22;37900;52.996;6.278;2022-12-18T02:12:25;16.30;67.30
51863;DHT22;37900;52.996;6.278;2022-12-18T02:17:47;16.00;67.00
51863;DHT22;37900;52.996;6.278;2022-12-18T02:20:32;16.00;67.00
51863;DHT22;37900;52.996;6.278;2022-12-18T02:28:31;16.00;66.90
51863;DHT22;37900;52.996;6.278;2022-12-18T02:31:01;16.00;66.90
51863;DHT22;37900;52.996;6.278;2022-12-18T02:33:29;16.00;66.90
51863;DHT22;37900;52.996;6.278;2022-12-18T02:35:57;16.00;66.90
51863;DHT22;37900;52.996;6.278;2022-12-18T02:38:25;16.00;66.90
51863;DHT22;37900;52.996;6.278;2022-12-18T02:40:52;16.00;66.80
51863;DHT22;37900;52.996;6.278;2022-12-18T02:43:18;15.90;66.80
51863;DHT22;37900;52.996;6.278;2022-12-18T02:45:56;15.90;67.30
51863;DHT22;37900;52.996;6.278;2022-12-18T02:48:25;15.90;66.70
51863;DHT22;37900;52.996;6.278;2022-12-18T02:51:17;15.90;66.70
51863;DHT22;37900;52.996;6.278;2022-12-18T02:53:51;15.90;66.60
51863;DHT22;37900;52.996;6.278;2022-12-18T02:56:28;15.90;66.60
51863;DHT22;37900;52.996;6.278;2022-12-18T02:59:00;15.90;66.60
51863;DHT22;37900;52.996;6.278;2022-12-18T03:01:57;15.90;66.60
51863;DHT22;37900;52.996;6.278;2022-12-18T03:04:43;15.80;66.50
51863;DHT22;37900;52.996;6.278;2022-12-18T03:07:19;15.90;66.50
51863;DHT22;37900;52.996;6.278;2022-12-18T03:09:49;15.90;66.60
51863;DHT22;37900;52.996;6.278;2022-12-18T03:12:28;15.90;66.60
51863;DHT22;37900;52.996;6.278;2022-12-18T03:15:06;15.80;66.50
51863;DHT22;37900;52.996;6.278;2022-12-18T03:17:33;15.80;66.50
51863;DHT22;37900;52.996;6.278;2022-12-18T03:20:08;15.80;66.50
51863;DHT22;37900;52.996;6.278;2022-12-18T03:22:36;15.80;66.50
51863;DHT22;37900;52.996;6.278;2022-12-18T03:25:06;15.80;66.50
51863;DHT22;37900;52.996;6.278;2022-12-18T03:27:33;15.80;66.40
51863;DHT22;37900;52.996;6.278;2022-12-18T03:30:08;15.80;66.50
51863;DHT22;37900;52.996;6.278;2022-12-18T03:35:18;15.80;66.40
51863;DHT22;37900;52.996;6.278;2022-12-18T03:37:45;15.80;66.40
51863;DHT22;37900;52.996;6.278;2022-12-18T03:40:11;15.70;66.40
51863;DHT22;37900;52.996;6.278;2022-12-18T03:42:57;15.70;66.40
51863;DHT22;37900;52.996;6.278;2022-12-18T03:45:36;15.70;66.30
51863;DHT22;37900;52.996;6.278;2022-12-18T03:48:07;15.70;66.30
51863;DHT22;37900;52.996;6.278;2022-12-18T03:55:48;15.70;66.20
51863;DHT22;37900;52.996;6.278;2022-12-18T03:58:18;15.70;66.30
51863;DHT22;37900;52.996;6.278;2022-12-18T04:00:45;15.70;66.20
51863;DHT22;37900;52.996;6.278;2022-12-18T04:03:14;15.70;66.10
51863;DHT22;37900;52.996;6.278;2022-12-18T04:05:41;15.70;66.20
51863;DHT22;37900;52.996;6.278;2022-12-18T04:08:08;15.70;66.70
51863;DHT22;37900;52.996;6.278;2022-12-18T04:10:35;15.60;66.00
51863;DHT22;37900;52.996;6.278;2022-12-18T04:13:01;16.10;66.30
51863;DHT22;37900;52.996;6.278;2022-12-18T04:15:26;15.60;65.90
51863;DHT22;37900;52.996;6.278;2022-12-18T04:17:52;15.60;66.00
51863;DHT22;37900;52.996;6.278;2022-12-18T04:20:18;15.60;66.00
51863;DHT22;37900;52.996;6.278;2022-12-18T04:22:44;15.60;66.00
51863;DHT22;37900;52.996;6.278;2022-12-18T04:25:12;15.60;66.00
51863;DHT22;37900;52.996;6.278;2022-12-18T04:27:38;15.60;66.00
51863;DHT22;37900;52.996;6.278;2022-12-18T04:30:04;15.60;66.10
51863;DHT22;37900;52.996;6.278;2022-12-18T04:32:30;15.60;66.00
51863;DHT22;37900;52.996;6.278;2022-12-18T04:34:56;15.60;66.00
51863;DHT22;37900;52.996;6.278;2022-12-18T04:37:22;15.60;66.10
51863;DHT22;37900;52.996;6.278;2022-12-18T04:39:47;15.60;66.10
51863;DHT22;37900;52.996;6.278;2022-12-18T04:42:13;15.60;66.00
51863;DHT22;37900;52.996;6.278;2022-12-18T04:44:39;15.60;65.90
51863;DHT22;37900;52.996;6.278;2022-12-18T04:47:05;15.60;65.90
51863;DHT22;37900;52.996;6.278;2022-12-18T04:49:30;15.60;65.90
51863;DHT22;37900;52.996;6.278;2022-12-18T04:51:56;15.50;65.70
51863;DHT22;37900;52.996;6.278;2022-12-18T04:54:22;15.60;65.70
51863;DHT22;37900;52.996;6.278;2022-12-18T04:56:48;15.60;65.60
51863;DHT22;37900;52.996;6.278;2022-12-18T04:59:13;15.60;65.60
51863;DHT22;37900;52.996;6.278;2022-12-18T05:01:39;15.50;65.50
51863;DHT22;37900;52.996;6.278;2022-12-18T05:04:05;15.60;65.40
51863;DHT22;37900;52.996;6.278;2022-12-18T05:06:31;15.50;65.30
51863;DHT22;37900;52.996;6.278;2022-12-18T05:08:57;15.50;65.30
51863;DHT22;37900;52.996;6.278;2022-12-18T05:11:22;15.50;65.20
51863;DHT22;37900;52.996;6.278;2022-12-18T05:13:48;15.50;65.20
51863;DHT22;37900;52.996;6.278;2022-12-18T05:16:15;15.50;65.20
51863;DHT22;37900;52.996;6.278;2022-12-18T05:18:41;15.60;65.20
51863;DHT22;37900;52.996;6.278;2022-12-18T05:21:07;15.50;65.10
51863;DHT22;37900;52.996;6.278;2022-12-18T05:23:34;15.50;65.70
51863;DHT22;37900;52.996;6.278;2022-12-18T05:26:02;15.50;65.10
51863;DHT22;37900;52.996;6.278;2022-12-18T05:28:30;15.50;65.10
51863;DHT22;37900;52.996;6.278;2022-12-18T05:30:56;15.60;65.20
51863;DHT22;37900;52.996;6.278;2022-12-18T05:33:23;15.50;64.80
51863;DHT22;37900;52.996;6.278;2022-12-18T05:35:54;15.60;65.20
51863;DHT22;37900;52.996;6.278;2022-12-18T05:38:21;15.50;65.20
51863;DHT22;37900;52.996;6.278;2022-12-18T05:40:49;15.60;65.30
51863;DHT22;37900;52.996;6.278;2022-12-18T05:43:15;15.50;65.30
51863;DHT22;37900;52.996;6.278;2022-12-18T05:45:41;15.60;65.20
51863;DHT22;37900;52.996;6.278;2022-12-18T05:48:07;15.50;65.30
51863;DHT22;37900;52.996;6.278;2022-12-18T05:50:37;15.50;65.30
51863;DHT22;37900;52.996;6.278;2022-12-18T05:53:04;15.50;65.30
51863;DHT22;37900;52.996;6.278;2022-12-18T05:55:33;15.50;65.30
51863;DHT22;37900;52.996;6.278;2022-12-18T05:58:00;15.50;65.30
51863;DHT22;37900;52.996;6.278;2022-12-18T06:00:25;15.50;65.30
51863;DHT22;37900;52.996;6.278;2022-12-18T06:02:51;15.50;65.30
51863;DHT22;37900;52.996;6.278;2022-12-18T06:05:17;15.50;65.20
51863;DHT22;37900;52.996;6.278;2022-12-18T06:07:43;15.50;65.30
51863;DHT22;37900;52.996;6.278;2022-12-18T06:10:11;15.50;65.30
51863;DHT22;37900;52.996;6.278;2022-12-18T06:12:37;15.40;65.20
51863;DHT22;37900;52.996;6.278;2022-12-18T06:15:03;15.50;65.30
51863;DHT22;37900;52.996;6.278;2022-12-18T06:17:30;15.50;65.20
51863;DHT22;37900;52.996;6.278;2022-12-18T06:19:57;15.60;65.30
51863;DHT22;37900;52.996;6.278;2022-12-18T06:22:23;15.50;65.30
51863;DHT22;37900;52.996;6.278;2022-12-18T06:24:49;15.50;65.20
51863;DHT22;37900;52.996;6.278;2022-12-18T06:27:15;15.50;65.20
51863;DHT22;37900;52.996;6.278;2022-12-18T06:29:40;15.50;65.20
51863;DHT22;37900;52.996;6.278;2022-12-18T06:32:06;15.50;65.30
51863;DHT22;37900;52.996;6.278;2022-12-18T06:34:33;15.50;65.30
51863;DHT22;37900;52.996;6.278;2022-12-18T06:36:59;15.50;65.80
51863;DHT22;37900;52.996;6.278;2022-12-18T06:39:27;15.50;65.20
51863;DHT22;37900;52.996;6.278;2022-12-18T06:41:52;15.50;65.20
51863;DHT22;37900;52.996;6.278;2022-12-18T06:44:18;15.50;65.20
51863;DHT22;37900;52.996;6.278;2022-12-18T06:46:44;15.50;65.20
51863;DHT22;37900;52.996;6.278;2022-12-18T06:49:10;15.50;65.20
51863;DHT22;37900;52.996;6.278;2022-12-18T06:51:36;15.50;65.10
51863;DHT22;37900;52.996;6.278;2022-12-18T06:54:02;15.50;65.20
51863;DHT22;37900;52.996;6.278;2022-12-18T06:56:28;15.50;65.20
51863;DHT22;37900;52.996;6.278;2022-12-18T06:58:54;15.50;65.10
51863;DHT22;37900;52.996;6.278;2022-12-18T07:01:20;15.50;65.10
51863;DHT22;37900;52.996;6.278;2022-12-18T07:03:47;15.50;65.10
51863;DHT22;37900;52.996;6.278;2022-12-18T07:06:18;15.50;65.10
51863;DHT22;37900;52.996;6.278;2022-12-18T07:08:45;15.60;65.10
51863;DHT22;37900;52.996;6.278;2022-12-18T07:11:11;15.90;65.20
51863;DHT22;37900;52.996;6.278;2022-12-18T07:13:36;15.50;65.00
51863;DHT22;37900;52.996;6.278;2022-12-18T07:16:18;15.50;65.00
51863;DHT22;37900;52.996;6.278;2022-12-18T07:18:44;15.50;65.00
51863;DHT22;37900;52.996;6.278;2022-12-18T07:21:13;15.50;64.90
51863;DHT22;37900;52.996;6.278;2022-12-18T07:23:40;15.60;65.00
51863;DHT22;37900;52.996;6.278;2022-12-18T07:26:08;15.60;65.00
51863;DHT22;37900;52.996;6.278;2022-12-18T07:28:36;15.60;64.90
51863;DHT22;37900;52.996;6.278;2022-12-18T07:31:15;15.60;64.90
51863;DHT22;37900;52.996;6.278;2022-12-18T07:33:42;15.60;64.90
51863;DHT22;37900;52.996;6.278;2022-12-18T07:36:08;15.60;64.90
51863;DHT22;37900;52.996;6.278;2022-12-18T07:38:35;15.60;64.90
51863;DHT22;37900;52.996;6.278;2022-12-18T07:41:12;15.60;65.00
51863;DHT22;37900;52.996;6.278;2022-12-18T07:43:38;15.60;64.90
51863;DHT22;37900;52.996;6.278;2022-12-18T07:46:05;15.60;65.00
51863;DHT22;37900;52.996;6.278;2022-12-18T07:48:32;15.60;64.90
51863;DHT22;37900;52.996;6.278;2022-12-18T07:51:02;15.60;64.80
51863;DHT22;37900;52.996;6.278;2022-12-18T07:53:28;15.60;64.80
51863;DHT22;37900;52.996;6.278;2022-12-18T07:55:58;15.60;64.80
51863;DHT22;37900;52.996;6.278;2022-12-18T07:58:24;15.60;64.80
51863;DHT22;37900;52.996;6.278;2022-12-18T08:00:50;15.60;64.80
51863;DHT22;37900;52.996;6.278;2022-12-18T08:03:16;15.60;64.80
51863;DHT22;37900;52.996;6.278;2022-12-18T08:05:42;15.60;64.70
51863;DHT22;37900;52.996;6.278;2022-12-18T08:08:07;15.60;64.70
51863;DHT22;37900;52.996;6.278;2022-12-18T08:10:33;15.70;64.80
51863;DHT22;37900;52.996;6.278;2022-12-18T08:12:59;15.60;64.70
51863;DHT22;37900;52.996;6.278;2022-12-18T08:15:24;15.60;64.70
51863;DHT22;37900;52.996;6.278;2022-12-18T08:17:50;15.70;64.80
51863;DHT22;37900;52.996;6.278;2022-12-18T08:20:16;15.60;64.70
51863;DHT22;37900;52.996;6.278;2022-12-18T08:22:43;15.70;64.70
51863;DHT22;37900;52.996;6.278;2022-12-18T08:25:10;15.70;64.70
51863;DHT22;37900;52.996;6.278;2022-12-18T08:27:36;15.70;64.70
51863;DHT22;37900;52.996;6.278;2022-12-18T08:30:03;15.70;64.70
51863;DHT22;37900;52.996;6.278;2022-12-18T08:32:29;15.70;64.70
51863;DHT22;37900;52.996;6.278;2022-12-18T08:34:55;15.70;64.60
51863;DHT22;37900;52.996;6.278;2022-12-18T08:37:20;15.70;64.60
51863;DHT22;37900;52.996;6.278;2022-12-18T08:39:46;15.70;64.60
51863;DHT22;37900;52.996;6.278;2022-12-18T08:42:12;15.70;64.60
51863;DHT22;37900;52.996;6.278;2022-12-18T08:44:57;15.70;64.60
51863;DHT22;37900;52.996;6.278;2022-12-18T08:47:22;15.70;64.60
51863;DHT22;37900;52.996;6.278;2022-12-18T08:49:48;15.70;64.60
51863;DHT22;37900;52.996;6.278;2022-12-18T08:52:14;15.70;64.60
51863;DHT22;37900;52.996;6.278;2022-12-18T08:54:39;15.70;64.60
51863;DHT22;37900;52.996;6.278;2022-12-18T08:57:05;15.80;64.60
51863;DHT22;37900;52.996;6.278;2022-12-18T08:59:31;15.70;64.60
51863;DHT22;37900;52.996;6.278;2022-12-18T09:01:56;15.70;64.60
51863;DHT22;37900;52.996;6.278;2022-12-18T09:04:22;15.70;64.60
51863;DHT22;37900;52.996;6.278;2022-12-18T09:06:48;15.70;64.60
51863;DHT22;37900;52.996;6.278;2022-12-18T09:09:14;15.70;64.40
51863;DHT22;37900;52.996;6.278;2022-12-18T09:11:40;15.70;64.50
51863;DHT22;37900;52.996;6.278;2022-12-18T09:14:05;15.70;64.50
51863;DHT22;37900;52.996;6.278;2022-12-18T09:16:32;15.80;64.60
51863;DHT22;37900;52.996;6.278;2022-12-18T09:19:00;15.80;64.60
51863;DHT22;37900;52.996;6.278;2022-12-18T09:21:32;15.70;64.50
51863;DHT22;37900;52.996;6.278;2022-12-18T09:23:58;15.80;64.60
51863;DHT22;37900;52.996;6.278;2022-12-18T09:26:25;15.80;64.60
51863;DHT22;37900;52.996;6.278;2022-12-18T09:28:51;15.80;64.60
51863;DHT22;37900;52.996;6.278;2022-12-18T09:31:19;15.80;64.50
51863;DHT22;37900;52.996;6.278;2022-12-18T09:33:45;15.80;64.60
51863;DHT22;37900;52.996;6.278;2022-12-18T09:36:13;15.80;64.80
51863;DHT22;37900;52.996;6.278;2022-12-18T09:38:40;15.80;64.60
51863;DHT22;37900;52.996;6.278;2022-12-18T09:41:33;15.80;64.80
51863;DHT22;37900;52.996;6.278;2022-12-18T09:44:05;15.80;64.90
51863;DHT22;37900;52.996;6.278;2022-12-18T09:46:45;15.90;65.10
51863;DHT22;37900;52.996;6.278;2022-12-18T09:49:15;15.90;65.30
51863;DHT22;37900;52.996;6.278;2022-12-18T09:51:47;15.90;65.50
51863;DHT22;37900;52.996;6.278;2022-12-18T09:54:25;16.00;66.30
51863;DHT22;37900;52.996;6.278;2022-12-18T09:56:51;16.00;65.80
51863;DHT22;37900;52.996;6.278;2022-12-18T10:01:46;16.10;66.00
51863;DHT22;37900;52.996;6.278;2022-12-18T10:04:11;16.10;66.00
51863;DHT22;37900;52.996;6.278;2022-12-18T10:06:54;16.10;66.00
51863;DHT22;37900;52.996;6.278;2022-12-18T10:09:37;16.30;66.00
51863;DHT22;37900;52.996;6.278;2022-12-18T10:15:05;16.20;66.00
51863;DHT22;37900;52.996;6.278;2022-12-18T10:20:41;16.20;65.90
51863;DHT22;37900;52.996;6.278;2022-12-18T10:23:24;16.20;65.90
51863;DHT22;37900;52.996;6.278;2022-12-18T10:28:33;16.20;65.80
51863;DHT22;37900;52.996;6.278;2022-12-18T10:31:01;16.20;65.80
51863;DHT22;37900;52.996;6.278;2022-12-18T10:33:32;16.20;65.80
51863;DHT22;37900;52.996;6.278;2022-12-18T10:35:58;16.20;65.80
51863;DHT22;37900;52.996;6.278;2022-12-18T10:38:30;16.20;65.80
51863;DHT22;37900;52.996;6.278;2022-12-18T10:41:03;16.30;65.80
51863;DHT22;37900;52.996;6.278;2022-12-18T10:43:31;16.20;65.80
51863;DHT22;37900;52.996;6.278;2022-12-18T10:51:07;16.30;65.70
51863;DHT22;37900;52.996;6.278;2022-12-18T10:53:35;16.30;65.90
51863;DHT22;37900;52.996;6.278;2022-12-18T10:56:03;16.30;65.80
51863;DHT22;37900;52.996;6.278;2022-12-18T10:58:36;16.30;65.80
51863;DHT22;37900;52.996;6.278;2022-12-18T11:01:15;16.30;65.80
51863;DHT22;37900;52.996;6.278;2022-12-18T11:03:42;16.30;65.80
51863;DHT22;37900;52.996;6.278;2022-12-18T11:06:12;16.30;65.80
51863;DHT22;37900;52.996;6.278;2022-12-18T11:08:38;16.30;65.80
51863;DHT22;37900;52.996;6.278;2022-12-18T11:11:15;16.30;66.40
51863;DHT22;37900;52.996;6.278;2022-12-18T11:13:52;16.30;65.80
51863;DHT22;37900;52.996;6.278;2022-12-18T11:16:21;16.30;65.80
51863;DHT22;37900;52.996;6.278;2022-12-18T11:18:47;16.30;65.80
51863;DHT22;37900;52.996;6.278;2022-12-18T11:21:13;16.30;65.80
51863;DHT22;37900;52.996;6.278;2022-12-18T11:23:53;16.30;65.80
51863;DHT22;37900;52.996;6.278;2022-12-18T11:26:20;16.30;65.70
51863;DHT22;37900;52.996;6.278;2022-12-18T11:28:50;16.30;66.40
51863;DHT22;37900;52.996;6.278;2022-12-18T11:31:18;16.30;65.80
51863;DHT22;37900;52.996;6.278;2022-12-18T11:36:23;16.40;65.80
51863;DHT22;37900;52.996;6.278;2022-12-18T11:38:52;16.40;65.80
51863;DHT22;37900;52.996;6.278;2022-12-18T11:41:34;16.40;65.80
51863;DHT22;37900;52.996;6.278;2022-12-18T11:44:28;16.40;65.80
51863;DHT22;37900;52.996;6.278;2022-12-18T11:47:00;16.40;65.80
51863;DHT22;37900;52.996;6.278;2022-12-18T11:49:34;16.40;65.80
51863;DHT22;37900;52.996;6.278;2022-12-18T11:52:23;16.40;65.70
51863;DHT22;37900;52.996;6.278;2022-12-18T11:54:57;16.30;66.10
51863;DHT22;37900;52.996;6.278;2022-12-18T12:12:02;16.30;65.30
51863;DHT22;37900;52.996;6.278;2022-12-18T12:17:31;16.30;65.30
51863;DHT22;37900;52.996;6.278;2022-12-18T12:22:58;16.20;65.20
51863;DHT22;37900;52.996;6.278;2022-12-18T12:25:36;16.20;65.10
51863;DHT22;37900;52.996;6.278;2022-12-18T12:31:01;16.10;65.10
51863;DHT22;37900;52.996;6.278;2022-12-18T12:36:40;16.10;64.90
51863;DHT22;37900;52.996;6.278;2022-12-18T12:39:13;16.20;65.00
51863;DHT22;37900;52.996;6.278;2022-12-18T12:41:42;16.10;64.90
51863;DHT22;37900;52.996;6.278;2022-12-18T12:44:38;16.10;64.90
51863;DHT22;37900;52.996;6.278;2022-12-18T12:47:18;16.10;64.90
51863;DHT22;37900;52.996;6.278;2022-12-18T12:49:46;16.00;64.40
51863;DHT22;37900;52.996;6.278;2022-12-18T12:52:54;16.00;64.30
51863;DHT22;37900;52.996;6.278;2022-12-18T12:55:27;16.00;63.80
51863;DHT22;37900;52.996;6.278;2022-12-18T12:58:11;16.00;64.00
51863;DHT22;37900;52.996;6.278;2022-12-18T13:00:46;16.00;63.80
51863;DHT22;37900;52.996;6.278;2022-12-18T13:06:23;15.90;63.70
51863;DHT22;37900;52.996;6.278;2022-12-18T13:08:56;15.90;63.70
51863;DHT22;37900;52.996;6.278;2022-12-18T13:11:55;15.90;63.80
51863;DHT22;37900;52.996;6.278;2022-12-18T13:14:45;15.90;63.70
51863;DHT22;37900;52.996;6.278;2022-12-18T13:20:05;15.90;64.00
51863;DHT22;37900;52.996;6.278;2022-12-18T13:28:14;15.90;64.20
51863;DHT22;37900;52.996;6.278;2022-12-18T13:30:54;15.80;64.20
51863;DHT22;37900;52.996;6.278;2022-12-18T13:36:00;15.80;64.30
51863;DHT22;37900;52.996;6.278;2022-12-18T13:38:37;15.80;64.40
51863;DHT22;37900;52.996;6.278;2022-12-18T13:43:52;15.80;64.40
51863;DHT22;37900;52.996;6.278;2022-12-18T13:46:30;15.80;64.50
51863;DHT22;37900;52.996;6.278;2022-12-18T13:51:54;15.80;64.50
51863;DHT22;37900;52.996;6.278;2022-12-18T13:54:29;15.70;64.50
51863;DHT22;37900;52.996;6.278;2022-12-18T13:56:56;15.80;64.60
51863;DHT22;37900;52.996;6.278;2022-12-18T13:59:24;15.70;64.50
51863;DHT22;37900;52.996;6.278;2022-12-18T14:01:58;15.70;64.50
51863;DHT22;37900;52.996;6.278;2022-12-18T14:07:02;15.70;64.60
51863;DHT22;37900;52.996;6.278;2022-12-18T14:09:31;15.70;64.60
51863;DHT22;37900;52.996;6.278;2022-12-18T14:12:00;15.70;64.60
51863;DHT22;37900;52.996;6.278;2022-12-18T14:14:47;15.70;64.70
51863;DHT22;37900;52.996;6.278;2022-12-18T14:17:15;15.70;64.60
51863;DHT22;37900;52.996;6.278;2022-12-18T14:19:46;15.70;64.60
51863;DHT22;37900;52.996;6.278;2022-12-18T14:22:21;15.70;64.70
51863;DHT22;37900;52.996;6.278;2022-12-18T14:24:47;15.70;64.70
51863;DHT22;37900;52.996;6.278;2022-12-18T14:27:29;15.70;64.70
51863;DHT22;37900;52.996;6.278;2022-12-18T14:29:55;15.60;64.70
51863;DHT22;37900;52.996;6.278;2022-12-18T14:32:21;15.60;64.70
51863;DHT22;37900;52.996;6.278;2022-12-18T14:34:52;15.60;64.70
51863;DHT22;37900;52.996;6.278;2022-12-18T14:37:24;15.60;64.70
51863;DHT22;37900;52.996;6.278;2022-12-18T14:39:58;15.60;64.70
51863;DHT22;37900;52.996;6.278;2022-12-18T14:42:31;15.60;64.80
51863;DHT22;37900;52.996;6.278;2022-12-18T14:48:01;15.60;64.80
51863;DHT22;37900;52.996;6.278;2022-12-18T14:50:30;15.50;64.80
51863;DHT22;37900;52.996;6.278;2022-12-18T14:52:56;15.60;64.80
51863;DHT22;37900;52.996;6.278;2022-12-18T14:55:22;15.50;64.80
51863;DHT22;37900;52.996;6.278;2022-12-18T14:57:53;15.60;64.80
51863;DHT22;37900;52.996;6.278;2022-12-18T15:00:23;15.60;64.80
51863;DHT22;37900;52.996;6.278;2022-12-18T15:02:55;15.50;64.80
51863;DHT22;37900;52.996;6.278;2022-12-18T15:05:27;15.50;64.80
51863;DHT22;37900;52.996;6.278;2022-12-18T15:07:55;15.50;64.80
51863;DHT22;37900;52.996;6.278;2022-12-18T15:10:23;15.50;64.80
51863;DHT22;37900;52.996;6.278;2022-12-18T15:13:15;15.80;65.00
51863;DHT22;37900;52.996;6.278;2022-12-18T15:15:46;15.50;64.80
51863;DHT22;37900;52.996;6.278;2022-12-18T15:18:15;15.50;64.90
51863;DHT22;37900;52.996;6.278;2022-12-18T15:21:09;15.50;64.90
51863;DHT22;37900;52.996;6.278;2022-12-18T15:23:45;15.50;64.80
51863;DHT22;37900;52.996;6.278;2022-12-18T15:26:13;15.50;64.90
51863;DHT22;37900;52.996;6.278;2022-12-18T15:28:54;15.50;64.90
51863;DHT22;37900;52.996;6.278;2022-12-18T15:31:34;15.40;64.80
51863;DHT22;37900;52.996;6.278;2022-12-18T15:34:05;15.50;64.80
51863;DHT22;37900;52.996;6.278;2022-12-18T15:36:31;15.50;64.90
51863;DHT22;37900;52.996;6.278;2022-12-18T15:38:58;15.40;64.80
51863;DHT22;37900;52.996;6.278;2022-12-18T15:41:24;15.50;64.90
51863;DHT22;37900;52.996;6.278;2022-12-18T15:43:51;15.40;64.80
51863;DHT22;37900;52.996;6.278;2022-12-18T15:48:50;15.40;64.80
51863;DHT22;37900;52.996;6.278;2022-12-18T15:51:29;15.40;64.80
51863;DHT22;37900;52.996;6.278;2022-12-18T15:53:59;15.40;64.70
51863;DHT22;37900;52.996;6.278;2022-12-18T15:56:26;15.40;64.80
51863;DHT22;37900;52.996;6.278;2022-12-18T15:59:12;15.40;64.80
51863;DHT22;37900;52.996;6.278;2022-12-18T16:01:40;15.40;64.80
51863;DHT22;37900;52.996;6.278;2022-12-18T16:04:06;15.40;64.80
51863;DHT22;37900;52.996;6.278;2022-12-18T16:06:32;15.40;64.80
51863;DHT22;37900;52.996;6.278;2022-12-18T16:08:58;15.40;64.80
51863;DHT22;37900;52.996;6.278;2022-12-18T16:11:32;15.40;64.80
51863;DHT22;37900;52.996;6.278;2022-12-18T16:14:20;15.40;64.80
51863;DHT22;37900;52.996;6.278;2022-12-18T16:16:50;15.40;64.70
51863;DHT22;37900;52.996;6.278;2022-12-18T16:19:17;15.40;64.80
51863;DHT22;37900;52.996;6.278;2022-12-18T16:21:43;15.40;65.30
51863;DHT22;37900;52.996;6.278;2022-12-18T16:26:39;15.40;64.70
51863;DHT22;37900;52.996;6.278;2022-12-18T16:29:07;15.40;64.70
51863;DHT22;37900;52.996;6.278;2022-12-18T16:31:33;15.40;64.50
51863;DHT22;37900;52.996;6.278;2022-12-18T16:34:22;15.40;64.70
51863;DHT22;37900;52.996;6.278;2022-12-18T16:36:53;15.30;64.50
51863;DHT22;37900;52.996;6.278;2022-12-18T16:39:20;15.30;64.60
51863;DHT22;37900;52.996;6.278;2022-12-18T16:41:46;15.30;64.60
51863;DHT22;37900;52.996;6.278;2022-12-18T16:44:11;15.40;64.60
51863;DHT22;37900;52.996;6.278;2022-12-18T16:46:38;15.30;64.60
51863;DHT22;37900;52.996;6.278;2022-12-18T16:49:05;15.50;64.70
51863;DHT22;37900;52.996;6.278;2022-12-18T16:51:30;15.40;64.60
51863;DHT22;37900;52.996;6.278;2022-12-18T16:53:56;15.60;64.80
51863;DHT22;37900;52.996;6.278;2022-12-18T16:56:22;15.40;64.60
51863;DHT22;37900;52.996;6.278;2022-12-18T16:58:53;15.40;64.70
51863;DHT22;37900;52.996;6.278;2022-12-18T17:01:19;15.40;64.60
51863;DHT22;37900;52.996;6.278;2022-12-18T17:03:57;15.40;64.70
51863;DHT22;37900;52.996;6.278;2022-12-18T17:06:24;15.40;64.60
51863;DHT22;37900;52.996;6.278;2022-12-18T17:09:05;15.40;64.60
51863;DHT22;37900;52.996;6.278;2022-12-18T17:11:32;15.40;64.60
51863;DHT22;37900;52.996;6.278;2022-12-18T17:13:58;15.30;64.60
51863;DHT22;37900;52.996;6.278;2022-12-18T17:16:25;15.40;64.60
51863;DHT22;37900;52.996;6.278;2022-12-18T17:18:54;15.40;64.60
51863;DHT22;37900;52.996;6.278;2022-12-18T17:21:19;15.30;64.50
51863;DHT22;37900;52.996;6.278;2022-12-18T17:23:45;15.30;64.50
51863;DHT22;37900;52.996;6.278;2022-12-18T17:26:11;15.30;64.50
51863;DHT22;37900;52.996;6.278;2022-12-18T17:28:38;15.30;64.50